Time;durP1;ratioP1;P1;durP2;ratioP2;P2;SDS_P1;SDS_P2;PMS_P1;PMS_P2;Temp;Humidity;BMP_temperature;BMP_pressure;BME280_temperature;BME280_humidity;BME280_pressure;Samples;Min_cycle;Max_cycle;Signal;HPM_P1;HPM_P2
2022/11/27 00:03:01;;;;;;;0.20;0.20;;;;;;;4.53;100.00;102914.72;10450926;28;20136;-79
2022/11/27 00:08:03;;;;;;;0.43;0.40;;;;;;;4.52;100.00;102903.63;10445998;28;20045;-79
2022/11/27 00:13:05;;;;;;;1.08;0.75;;;;;;;4.49;100.00;102899.91;10482293;28;20475;-80
2022/11/27 00:18:06;;;;;;;2.33;1.05;;;;;;;4.51;100.00;102895.81;10481284;28;20415;-79
2022/11/27 00:23:08;;;;;;;21.35;1.65;;;;;;;4.44;100.00;102887.66;10440857;28;20083;-79
2022/11/27 00:28:09;;;;;;;0.95;0.93;;;;;;;4.40;100.00;102883.06;10440603;28;20098;-79
2022/11/27 00:33:11;;;;;;;0.32;0.10;;;;;;;4.35;100.00;102893.66;10458161;28;20060;-79
2022/11/27 00:38:12;;;;;;;1.50;0.30;;;;;;;4.27;100.00;102891.34;10440235;28;20063;-78
2022/11/27 00:43:14;;;;;;;0.60;0.52;;;;;;;4.24;100.00;102874.91;10427562;28;20464;-80
2022/11/27 00:48:16;;;;;;;26.08;0.90;;;;;;;4.33;100.00;102875.66;10439682;28;20045;-79
2022/11/27 00:53:17;;;;;;;0.30;0.30;;;;;;;4.41;100.00;102869.53;10456096;28;20467;-80
2022/11/27 00:58:21;;;;;;;0.20;0.20;;;;;;;4.41;100.00;102858.44;10441047;28;20053;-80
2022/11/27 01:03:23;;;;;;;0.28;0.28;;;;;;;4.33;100.00;102852.72;10439370;28;20073;-80
2022/11/27 01:08:25;;;;;;;0.73;0.43;;;;;;;4.42;100.00;102852.56;10439174;28;20447;-80
2022/11/27 01:13:30;;;;;;;6.43;0.77;;;;;;;4.42;100.00;102845.81;10455333;28;20041;-79
2022/11/27 01:18:32;;;;;;;0.45;0.40;;;;;;;4.59;100.00;102838.63;10438894;28;20492;-79
2022/11/27 01:23:34;;;;;;;0.25;0.25;;;;;;;4.52;100.00;102828.69;10437935;28;20037;-80
2022/11/27 01:28:38;;;;;;;0.40;0.25;;;;;;;4.51;100.00;102819.22;10438827;28;20111;-80
2022/11/27 01:33:40;;;;;;;3.75;1.20;;;;;;;4.50;100.00;102827.69;10438941;28;20045;-79
2022/11/27 01:38:42;;;;;;;0.43;0.17;;;;;;;4.53;100.00;102823.72;10438532;28;20057;-79
2022/11/27 01:44:11;;;;;;;1.73;1.42;;;;;;;4.48;100.00;102813.91;10455522;28;20040;-79
2022/11/27 01:49:19;;;;;;;2.38;0.63;;;;;;;4.56;100.00;102792.44;10431381;28;20048;-79
2022/11/27 01:54:24;;;;;;;0.20;0.20;;;;;;;4.60;100.00;102776.59;10438241;28;20083;-79
2022/11/27 01:59:25;;;;;;;0.22;0.20;;;;;;;4.51;100.00;102774.19;10424034;28;20037;-79
2022/11/27 02:04:27;;;;;;;0.52;0.47;;;;;;;4.59;100.00;102769.69;10437746;28;20041;-80
2022/11/27 02:09:29;;;;;;;0.68;0.45;;;;;;;4.53;100.00;102771.75;10437587;28;20397;-80
2022/11/27 02:15:16;;;;;;;0.20;0.10;;;;;;;4.62;100.00;102753.75;10437825;28;20027;-80
2022/11/27 02:20:32;;;;;;;0.55;0.30;;;;;;;4.64;100.00;102735.22;10289455;28;20502;-79
2022/11/27 02:26:02;;;;;;;0.08;0.08;;;;;;;4.71;100.00;102703.41;10413349;28;20052;-80
2022/11/27 02:31:20;;;;;;;1.50;0.77;;;;;;;4.65;100.00;102696.16;10437793;28;20045;-80
2022/11/27 02:36:28;;;;;;;0.00;0.00;;;;;;;4.62;100.00;102683.16;10445047;28;20499;-80
2022/11/27 02:41:38;;;;;;;0.20;0.00;;;;;;;4.65;100.00;102683.41;10444541;28;20561;-83
2022/11/27 02:46:41;;;;;;;0.38;0.30;;;;;;;4.62;100.00;102672.94;10444773;28;20401;-81
2022/11/27 02:51:49;;;;;;;1.00;0.35;;;;;;;4.58;100.00;102653.03;10444634;28;20497;-79
2022/11/27 02:56:53;;;;;;;0.00;0.00;;;;;;;4.54;100.00;102658.69;10444153;28;20041;-79
2022/11/27 03:01:59;;;;;;;1.45;0.80;;;;;;;4.57;100.00;102656.38;10444323;28;20048;-79
2022/11/27 03:07:07;;;;;;;0.55;0.55;;;;;;;4.62;100.00;102643.97;10443915;28;20408;-79
2022/11/27 03:12:11;;;;;;;2.83;0.65;;;;;;;4.62;100.00;102655.06;10443569;28;20053;-80
2022/11/27 03:17:45;;;;;;;0.20;0.20;;;;;;;4.55;100.00;102646.03;10435669;28;20493;-79
2022/11/27 03:22:47;;;;;;;0.45;0.20;;;;;;;4.64;100.00;102638.22;10443506;28;20107;-80
2022/11/27 03:27:56;;;;;;;0.00;0.00;;;;;;;4.66;100.00;102631.53;10464149;28;20056;-79
2022/11/27 03:33:00;;;;;;;0.40;0.40;;;;;;;4.63;100.00;102638.06;10460713;28;20124;-79
2022/11/27 03:38:02;;;;;;;0.32;0.32;;;;;;;4.62;100.00;102619.31;10442992;28;20056;-80
2022/11/27 03:43:21;;;;;;;0.03;0.03;;;;;;;4.61;100.00;102612.44;10443154;28;20045;-80
2022/11/27 03:48:37;;;;;;;1.63;0.52;;;;;;;4.59;100.00;102608.84;10418023;28;20451;-78
2022/11/27 03:53:59;;;;;;;0.17;0.17;;;;;;;4.52;100.00;102598.94;10442443;28;20041;-78
2022/11/27 03:59:07;;;;;;;0.30;0.30;;;;;;;4.48;100.00;102599.50;10441869;28;20052;-78
2022/11/27 04:04:09;;;;;;;0.03;0.03;;;;;;;4.44;100.00;102594.13;10441685;28;20132;-78
2022/11/27 04:09:10;;;;;;;0.17;0.17;;;;;;;4.41;100.00;102608.31;10411768;28;20136;-80
2022/11/27 04:14:12;;;;;;;0.00;0.00;;;;;;;4.36;100.00;102600.28;10400152;28;20080;-79
2022/11/27 04:19:13;;;;;;;0.80;0.25;;;;;;;4.34;100.00;102611.16;10455050;28;20480;-79
2022/11/27 04:24:19;;;;;;;0.35;0.32;;;;;;;4.38;100.00;102595.34;10413534;28;20049;-79
2022/11/27 04:29:21;;;;;;;0.47;0.47;;;;;;;4.39;100.00;102589.47;10439679;28;20578;-79
2022/11/27 04:34:23;;;;;;;1.08;0.52;;;;;;;4.49;100.00;102575.75;10452927;28;20116;-81
2022/11/27 04:39:24;;;;;;;0.13;0.13;;;;;;;4.52;100.00;102570.88;10439990;28;20405;-79
2022/11/27 04:44:26;;;;;;;0.60;0.60;;;;;;;4.57;100.00;102561.94;10440406;28;20091;-78
2022/11/27 04:49:28;;;;;;;0.22;0.20;;;;;;;4.56;100.00;102555.91;10439746;28;20485;-79
2022/11/27 04:54:29;;;;;;;0.50;0.45;;;;;;;4.57;100.00;102554.28;10457519;28;20500;-79
2022/11/27 04:59:31;;;;;;;0.43;0.38;;;;;;;4.61;100.00;102546.06;10454445;28;20051;-80
2022/11/27 05:04:33;;;;;;;0.73;0.73;;;;;;;4.68;100.00;102542.31;10440007;28;20068;-80
2022/11/27 05:09:34;;;;;;;0.00;0.00;;;;;;;4.62;100.00;102537.63;10455337;28;20049;-79
2022/11/27 05:15:01;;;;;;;0.10;0.10;;;;;;;4.61;100.00;102528.19;10444521;28;20041;-78
2022/11/27 05:20:05;;;;;;;0.70;0.52;;;;;;;4.62;100.00;102511.22;10437995;28;20041;-80
2022/11/27 05:25:07;;;;;;;0.38;0.28;;;;;;;4.60;100.00;102503.44;10438477;28;20467;-80
2022/11/27 05:30:09;;;;;;;0.13;0.13;;;;;;;4.60;100.00;102486.47;10454341;28;20045;-80
2022/11/27 05:36:04;;;;;;;0.38;0.32;;;;;;;4.60;100.00;102493.22;10437869;28;20048;-81
2022/11/27 05:41:06;;;;;;;1.65;0.93;;;;;;;4.60;100.00;102477.91;10455424;28;20049;-79
2022/11/27 05:46:11;;;;;;;0.22;0.20;;;;;;;4.64;100.00;102467.16;10455201;28;20045;-80
2022/11/27 05:51:14;;;;;;;0.20;0.20;;;;;;;4.54;100.00;102464.69;10455891;28;20041;-80
2022/11/27 05:56:22;;;;;;;0.25;0.22;;;;;;;4.55;100.00;102463.91;10423519;28;20033;-79
2022/11/27 06:01:23;;;;;;;0.63;0.63;;;;;;;4.60;100.00;102470.25;10421103;28;20527;-80
2022/11/27 06:06:25;;;;;;;0.15;0.15;;;;;;;4.57;100.00;102459.81;10437207;28;20091;-79
2022/11/27 06:11:26;;;;;;;0.30;0.30;;;;;;;4.62;100.00;102468.69;10445473;28;20412;-79
2022/11/27 06:16:28;;;;;;;0.65;0.57;;;;;;;4.60;100.00;102452.38;10428704;28;20045;-79
2022/11/27 06:21:30;;;;;;;0.20;0.10;;;;;;;4.57;100.00;102452.16;10444755;28;20049;-79
2022/11/27 06:26:32;;;;;;;0.00;0.00;;;;;;;4.56;100.00;102455.47;10462747;28;20079;-80
2022/11/27 06:31:34;;;;;;;0.52;0.52;;;;;;;4.60;100.00;102452.38;10444698;28;20076;-79
2022/11/27 06:36:39;;;;;;;6.35;3.20;;;;;;;4.62;100.00;102440.63;10444702;28;20037;-79
2022/11/27 06:41:42;;;;;;;0.65;0.40;;;;;;;4.60;100.00;102435.41;10436995;28;20041;-79
2022/11/27 06:46:43;;;;;;;0.32;0.30;;;;;;;4.63;100.00;102437.31;10427948;28;20084;-78
2022/11/27 06:51:45;;;;;;;0.10;0.10;;;;;;;4.63;100.00;102437.31;10444132;28;20488;-79
2022/11/27 06:56:49;;;;;;;0.60;0.52;;;;;;;4.66;100.00;102426.41;10461841;28;20037;-78
2022/11/27 07:01:51;;;;;;;2.17;1.73;;;;;;;4.66;100.00;102432.41;10447059;28;20044;-79
2022/11/27 07:06:53;;;;;;;0.10;0.10;;;;;;;4.69;100.00;102421.56;10441100;28;20053;-79
2022/11/27 07:11:54;;;;;;;0.47;0.47;;;;;;;4.71;100.00;102419.97;10443527;28;20135;-78
2022/11/27 07:16:56;;;;;;;0.55;0.43;;;;;;;4.72;100.00;102422.69;10442907;28;20086;-80
2022/11/27 07:21:58;;;;;;;1.55;1.45;;;;;;;4.69;100.00;102413.91;10431067;28;20085;-78
2022/11/27 07:26:59;;;;;;;1.05;0.90;;;;;;;4.66;100.00;102411.09;10397528;28;20045;-80
2022/11/27 07:32:03;;;;;;;1.08;0.52;;;;;;;4.70;100.00;102413.09;10443065;28;20045;-79
2022/11/27 07:37:05;;;;;;;0.40;0.40;;;;;;;4.67;100.00;102416.31;10425343;28;20080;-79
2022/11/27 07:42:07;;;;;;;0.55;0.43;;;;;;;4.73;100.00;102404.00;10442099;28;20060;-79
2022/11/27 07:47:29;;;;;;;1.83;0.55;;;;;;;4.73;100.00;102404.00;10445268;28;20068;-78
2022/11/27 07:52:30;;;;;;;0.13;0.13;;;;;;;4.80;100.00;102390.03;10441288;28;20049;-79
2022/11/27 07:57:41;;;;;;;0.45;0.30;;;;;;;4.84;100.00;102397.13;10428107;28;20060;-79
2022/11/27 08:02:43;;;;;;;0.20;0.20;;;;;;;4.91;100.00;102395.94;10420668;28;20045;-79
2022/11/27 08:07:44;;;;;;;0.40;0.30;;;;;;;4.96;100.00;102366.50;10421344;28;20075;-79
2022/11/27 08:12:46;;;;;;;0.15;0.15;;;;;;;5.00;100.00;102358.28;10447693;28;20056;-78
2022/11/27 08:18:07;;;;;;;0.93;0.47;;;;;;;5.03;100.00;102342.28;10432133;28;20054;-77
2022/11/27 08:23:09;;;;;;;0.95;0.35;;;;;;;5.02;100.00;102320.97;10454863;28;20075;-80
2022/11/27 08:28:10;;;;;;;0.88;0.85;;;;;;;5.03;100.00;102316.75;10440837;28;20057;-78
2022/11/27 08:33:12;;;;;;;0.10;0.00;;;;;;;5.10;100.00;102300.19;10420867;28;20076;-78
2022/11/27 08:38:14;;;;;;;2.42;1.60;;;;;;;4.99;100.00;102299.44;10439893;28;20504;-79
2022/11/27 08:43:16;;;;;;;0.22;0.22;;;;;;;5.11;100.00;102304.50;10439650;28;20488;-80
2022/11/27 08:48:18;;;;;;;1.00;0.63;;;;;;;5.08;100.00;102303.53;10490598;28;20050;-79
2022/11/27 08:53:20;;;;;;;0.15;0.08;;;;;;;5.08;100.00;102308.63;10429160;28;20095;-80
2022/11/27 08:59:00;;;;;;;0.52;0.50;;;;;;;5.18;100.00;102311.81;10450397;28;20094;-79
2022/11/27 09:04:01;;;;;;;1.65;0.98;;;;;;;5.18;100.00;102312.72;10434817;28;20056;-80
2022/11/27 09:09:06;;;;;;;0.77;0.77;;;;;;;5.21;100.00;102312.03;10459708;28;20041;-80
2022/11/27 09:14:10;;;;;;;1.10;0.30;;;;;;;5.23;100.00;102321.59;10439360;28;20472;-80
2022/11/27 09:19:20;;;;;;;0.35;0.35;;;;;;;5.23;100.00;102330.94;10453769;28;20057;-81
2022/11/27 09:24:22;;;;;;;0.22;0.20;;;;;;;5.22;100.00;102360.69;10421827;28;20071;-80
2022/11/27 09:29:24;;;;;;;0.20;0.15;;;;;;;5.12;100.00;102365.03;10453250;28;20523;-82
2022/11/27 09:34:25;;;;;;;0.32;0.25;;;;;;;5.07;100.00;102380.03;10419685;28;20045;-83
2022/11/27 09:39:32;;;;;;;0.65;0.20;;;;;;;5.02;100.00;102394.16;10454428;28;20037;-81
2022/11/27 09:44:38;;;;;;;1.20;0.90;;;;;;;5.05;100.00;102400.38;10432881;28;20037;-82
2022/11/27 09:49:56;;;;;;;1.60;0.63;;;;;;;5.02;100.00;102405.28;10456872;28;20518;-81
2022/11/27 09:55:21;;;;;;;0.20;0.20;;;;;;;5.03;100.00;102401.03;10458545;28;20065;-80
2022/11/27 10:00:23;;;;;;;0.45;0.45;;;;;;;4.98;100.00;102405.81;10455998;28;20055;-79
2022/11/27 10:05:46;;;;;;;1.13;0.85;;;;;;;5.02;100.00;102406.91;10411718;28;20090;-81
2022/11/27 10:11:20;;;;;;;5.95;0.25;;;;;;;5.01;100.00;102405.13;10425725;28;20424;-79
2022/11/27 10:16:26;;;;;;;1.90;1.15;;;;;;;5.05;100.00;102397.81;10414586;28;20030;-80
2022/11/27 10:21:54;;;;;;;0.10;0.05;;;;;;;5.08;100.00;102390.38;10436585;28;20090;-80
2022/11/27 10:26:58;;;;;;;0.60;0.35;;;;;;;5.11;100.00;102382.03;10426265;28;20049;-79
2022/11/27 10:32:13;;;;;;;0.32;0.30;;;;;;;5.21;100.00;102369.13;10426175;28;20044;-80
2022/11/27 10:37:40;;;;;;;0.10;0.10;;;;;;;5.22;100.00;102373.47;10462280;28;20087;-80
2022/11/27 10:43:07;;;;;;;1.85;1.23;;;;;;;5.31;100.00;102365.59;10427044;28;20151;-81
2022/11/27 10:48:10;;;;;;;0.17;0.17;;;;;;;5.39;100.00;102359.34;10443415;28;20048;-81
2022/11/27 10:53:24;;;;;;;0.03;0.00;;;;;;;5.43;100.00;102355.34;10443206;28;20102;-82
2022/11/27 10:58:44;;;;;;;0.80;0.22;;;;;;;5.47;100.00;102351.34;10413051;28;20045;-80
2022/11/27 11:03:46;;;;;;;0.67;0.67;;;;;;;5.52;100.00;102345.75;10470772;28;20052;-80
2022/11/27 11:09:01;;;;;;;0.28;0.28;;;;;;;5.58;100.00;102324.84;10426041;28;20292;-80
2022/11/27 11:14:03;;;;;;;0.35;0.30;;;;;;;5.63;100.00;102303.03;10452660;28;20041;-81
2022/11/27 11:19:21;;;;;;;0.40;0.40;;;;;;;5.70;100.00;102299.22;10461242;28;20094;-81
2022/11/27 11:24:29;;;;;;;1.77;1.13;;;;;;;5.71;100.00;102291.66;10440205;28;20053;-80
2022/11/27 11:29:39;;;;;;;3.13;2.33;;;;;;;5.83;100.00;102277.94;10429453;28;20064;-81
2022/11/27 11:34:51;;;;;;;0.90;0.65;;;;;;;5.85;100.00;102258.44;10459430;28;20041;-80
2022/11/27 11:40:20;;;;;;;2.80;2.13;;;;;;;5.93;100.00;102247.06;10429717;28;20172;-80
2022/11/27 11:45:22;;;;;;;5.50;3.25;;;;;;;6.01;100.00;102225.47;10424289;28;20053;-81
2022/11/27 11:50:32;;;;;;;6.28;2.92;;;;;;;6.14;100.00;102221.16;10424084;28;20072;-81
2022/11/27 11:55:46;;;;;;;1.80;0.77;;;;;;;6.19;100.00;102219.78;10426997;28;20053;-80
2022/11/27 12:00:53;;;;;;;1.45;1.20;;;;;;;6.22;100.00;102203.72;10423575;28;20073;-80
2022/11/27 12:06:44;;;;;;;0.63;0.43;;;;;;;6.29;100.00;102201.66;10425367;28;20035;-81
2022/11/27 12:11:57;;;;;;;;;;;;;;;6.37;100.00;102184.25;10440559;28;20099;-80
2022/11/27 12:17:29;;;;;;;0.57;0.52;;;;;;;6.41;100.00;102182.75;10423721;28;19947;-81
2022/11/27 12:22:39;;;;;;;0.35;0.35;;;;;;;6.44;100.00;102176.16;10439694;28;20075;-81
2022/11/27 12:28:19;;;;;;;1.20;1.10;;;;;;;6.48;100.00;102161.88;10456920;28;20045;-80
2022/11/27 12:33:39;;;;;;;4.23;1.87;;;;;;;6.51;100.00;102141.59;10424108;28;20045;-80
2022/11/27 12:38:46;;;;;;;2.78;0.90;;;;;;;6.49;100.00;102125.25;10422029;28;20323;-80
2022/11/27 12:43:54;;;;;;;1.67;0.50;;;;;;;6.53;100.00;102114.41;10438217;28;20037;-80
2022/11/27 12:49:04;;;;;;;1.85;1.38;;;;;;;6.51;100.00;102100.63;10456079;28;20102;-80
2022/11/27 12:54:11;;;;;;;;;;;;;;;6.57;100.00;102089.88;10421640;28;20480;-81
2022/11/27 12:59:30;;;;;;;0.60;0.60;;;;;;;6.60;100.00;102090.94;10430936;28;19925;-81
2022/11/27 13:04:46;;;;;;;0.17;0.17;;;;;;;6.59;100.00;102076.34;10424300;28;20439;-81
2022/11/27 13:10:22;;;;;;;1.60;1.00;;;;;;;6.48;100.00;102077.41;10429359;28;20041;-81
2022/11/27 13:15:49;;;;;;;1.63;1.30;;;;;;;6.42;100.00;102072.78;10422822;28;20051;-82
2022/11/27 13:20:52;;;;;;;2.10;1.85;;;;;;;6.40;100.00;102076.03;10436796;28;20053;-80
2022/11/27 13:25:55;;;;;;;0.80;0.73;;;;;;;6.41;100.00;102068.44;10437480;28;20045;-80
2022/11/27 13:30:59;;;;;;;1.70;1.58;;;;;;;6.35;100.00;102081.75;10407280;28;20060;-80
2022/11/27 13:36:03;;;;;;;1.10;0.80;;;;;;;6.31;100.00;102066.13;10421134;28;20045;-81
2022/11/27 13:41:05;;;;;;;7.40;2.70;;;;;;;6.30;100.00;102075.44;10437699;28;20048;-82
2022/11/27 13:46:17;;;;;;;0.50;0.50;;;;;;;6.24;100.00;102069.09;10434433;28;20052;-82
2022/11/27 13:51:26;;;;;;;1.02;0.90;;;;;;;6.21;100.00;102069.78;10437306;28;20049;-81
2022/11/27 13:56:30;;;;;;;0.95;0.82;;;;;;;6.24;100.00;102062.28;10436843;28;20049;-82
2022/11/27 14:01:31;;;;;;;5.28;1.75;;;;;;;6.18;100.00;102057.66;10446523;28;20050;-81
2022/11/27 14:06:34;;;;;;;6.00;2.55;;;;;;;6.23;100.00;102062.19;10431420;28;20049;-81
2022/11/27 14:11:43;;;;;;;5.82;2.13;;;;;;;6.19;100.00;102061.13;10421644;28;20041;-82
2022/11/27 14:17:03;;;;;;;4.93;2.22;;;;;;;6.22;100.00;102073.22;10449739;28;20075;-81
2022/11/27 14:22:15;;;;;;;;;;;;;;;6.18;100.00;102049.13;10432975;28;20076;-81
2022/11/27 14:27:24;;;;;;;3.88;0.88;;;;;;;6.14;100.00;102037.81;10459152;28;20287;-80
2022/11/27 14:32:34;;;;;;;0.77;0.63;;;;;;;6.14;100.00;102022.44;10429040;28;20077;-80
2022/11/27 14:37:35;;;;;;;0.10;0.10;;;;;;;6.15;100.00;102023.31;10427300;28;20072;-80
2022/11/27 14:42:37;;;;;;;0.57;0.40;;;;;;;6.14;100.00;102012.22;10443811;28;20053;-80
2022/11/27 14:47:47;;;;;;;1.65;1.52;;;;;;;6.11;100.00;102006.03;10461148;28;20075;-79
2022/11/27 14:52:55;;;;;;;5.60;2.13;;;;;;;6.15;100.00;101993.50;10443272;28;20056;-79
2022/11/27 14:57:57;;;;;;;13.43;5.72;;;;;;;6.11;100.00;101991.53;10429321;28;20131;-80
2022/11/27 15:03:09;;;;;;;4.10;2.30;;;;;;;6.13;100.00;101983.97;10426817;28;20114;-80
2022/11/27 15:08:14;;;;;;;3.00;1.42;;;;;;;6.13;100.00;101979.72;10426379;28;20041;-80
2022/11/27 15:13:23;;;;;;;0.50;0.35;;;;;;;6.11;100.00;101967.66;10441970;28;20049;-81
2022/11/27 15:18:26;;;;;;;0.52;0.35;;;;;;;6.13;100.00;101959.25;10427526;28;20488;-83
2022/11/27 15:23:30;;;;;;;11.10;3.55;;;;;;;6.10;100.00;101959.09;10439576;28;20041;-82
2022/11/27 15:28:42;;;;;;;17.50;5.10;;;;;;;6.14;100.00;101944.81;10422327;28;20106;-82
2022/11/27 15:33:55;;;;;;;4.88;3.67;;;;;;;6.08;100.00;101939.28;10453127;28;20045;-82
2022/11/27 15:39:14;;;;;;;3.92;2.90;;;;;;;6.07;100.00;101945.22;10439558;28;20045;-82
2022/11/27 15:44:15;;;;;;;3.88;3.03;;;;;;;6.03;100.00;101947.59;10439719;28;20068;-82
2022/11/27 15:49:18;;;;;;;3.33;2.38;;;;;;;6.05;100.00;101949.38;10439470;28;20496;-82
2022/11/27 15:54:20;;;;;;;2.53;2.03;;;;;;;6.06;100.00;101940.91;10438346;28;20451;-82
2022/11/27 15:59:23;;;;;;;2.80;2.05;;;;;;;6.06;100.00;101949.44;10421338;28;20495;-84
2022/11/27 16:04:25;;;;;;;0.98;0.63;;;;;;;6.07;100.00;101945.22;10432174;28;20047;-82
2022/11/27 16:09:27;;;;;;;2.35;1.20;;;;;;;6.15;100.00;101936.31;10420882;28;20099;-83
2022/11/27 16:14:28;;;;;;;0.73;0.60;;;;;;;6.20;100.00;101929.81;10437921;28;20475;-82
2022/11/27 16:19:30;;;;;;;1.90;1.52;;;;;;;6.28;100.00;101917.47;10458957;28;20083;-81
2022/11/27 16:24:32;;;;;;;2.85;1.85;;;;;;;6.21;100.00;101910.22;10484064;28;20107;-82
2022/11/27 16:29:33;;;;;;;2.95;2.08;;;;;;;6.23;100.00;101888.19;10454463;28;20052;-83
2022/11/27 16:34:36;;;;;;;4.45;2.60;;;;;;;6.22;100.00;101871.06;10437514;28;20475;-83
2022/11/27 16:39:37;;;;;;;2.85;1.88;;;;;;;6.21;100.00;101859.94;10436133;28;20052;-83
2022/11/27 16:44:41;;;;;;;5.10;0.88;;;;;;;6.26;100.00;101847.41;10419844;28;20073;-84
2022/11/27 16:49:47;;;;;;;3.42;1.90;;;;;;;6.27;100.00;101829.59;10419584;28;20055;-82
2022/11/27 16:54:53;;;;;;;0.30;0.30;;;;;;;6.29;100.00;101812.63;10434806;28;20040;-83
2022/11/27 16:59:56;;;;;;;1.05;0.45;;;;;;;6.28;100.00;101792.97;10434583;28;20045;-83
2022/11/27 17:04:59;;;;;;;0.13;0.13;;;;;;;6.38;100.00;101783.25;10448547;28;20045;-82
2022/11/27 17:10:01;;;;;;;0.52;0.52;;;;;;;6.38;100.00;101770.44;10427696;28;20045;-82
2022/11/27 17:15:03;;;;;;;0.22;0.22;;;;;;;6.35;100.00;101772.06;10453296;28;20064;-82
2022/11/27 17:20:06;;;;;;;0.45;0.20;;;;;;;6.35;100.00;101760.91;10435332;28;20159;-83
2022/11/27 17:25:09;;;;;;;0.55;0.50;;;;;;;6.30;100.00;101747.84;10435839;28;20045;-84
2022/11/27 17:30:14;;;;;;;1.05;0.73;;;;;;;6.32;100.00;101741.16;10418060;28;20048;-83
2022/11/27 17:35:16;;;;;;;1.08;0.38;;;;;;;6.29;100.00;101729.88;10418787;28;20095;-82
2022/11/27 17:40:18;;;;;;;0.45;0.40;;;;;;;6.35;100.00;101732.75;10418259;28;20053;-83
2022/11/27 17:45:19;;;;;;;0.65;0.47;;;;;;;6.32;100.00;101720.69;10435017;28;20462;-82
2022/11/27 17:50:21;;;;;;;2.03;0.88;;;;;;;6.35;100.00;101704.63;10452195;28;20056;-83
2022/11/27 17:55:23;;;;;;;2.47;1.70;;;;;;;6.37;100.00;101699.59;10434613;28;20243;-82
2022/11/27 18:00:24;;;;;;;1.48;1.30;;;;;;;6.31;100.00;101690.75;10420328;28;20056;-83
2022/11/27 18:05:27;;;;;;;3.50;2.05;;;;;;;6.35;100.00;101685.03;10440122;28;20045;-82
2022/11/27 18:10:28;;;;;;;2.72;1.98;;;;;;;6.34;100.00;101688.38;10442958;28;20045;-82
2022/11/27 18:15:32;;;;;;;1.42;1.33;;;;;;;6.29;100.00;101683.78;10429261;28;20040;-82
2022/11/27 18:20:34;;;;;;;1.92;1.73;;;;;;;6.28;100.00;101674.34;10444478;28;20049;-82
2022/11/27 18:25:40;;;;;;;1.60;1.15;;;;;;;6.35;100.00;101679.91;10421543;28;20119;-83
2022/11/27 18:30:49;;;;;;;1.17;1.08;;;;;;;6.28;100.00;101662.47;10441078;28;20057;-82
2022/11/27 18:35:51;;;;;;;1.98;1.27;;;;;;;6.33;100.00;101660.13;10425171;28;20045;-83
2022/11/27 18:40:53;;;;;;;1.17;0.55;;;;;;;6.35;100.00;101659.44;10441649;28;20091;-82
2022/11/27 18:45:54;;;;;;;1.15;1.00;;;;;;;6.31;100.00;101647.25;10441177;28;20052;-83
2022/11/27 18:51:01;;;;;;;1.17;0.75;;;;;;;6.21;100.00;101650.13;10441127;28;20076;-82
2022/11/27 18:56:06;;;;;;;0.52;0.43;;;;;;;6.15;100.00;101659.97;10424850;28;20098;-84
2022/11/27 19:01:10;;;;;;;1.35;1.00;;;;;;;6.11;100.00;101668.28;10435073;28;20045;-82
2022/11/27 19:06:13;;;;;;;0.98;0.80;;;;;;;6.03;100.00;101671.31;10455475;28;20047;-82
2022/11/27 19:11:21;;;;;;;1.88;0.95;;;;;;;5.96;100.00;101679.38;10413350;28;20045;-81
2022/11/27 19:16:26;;;;;;;1.60;1.02;;;;;;;5.86;100.00;101674.53;10412642;28;20041;-80
2022/11/27 19:21:30;;;;;;;2.13;0.80;;;;;;;5.80;100.00;101685.31;10429248;28;20451;-79
2022/11/27 19:26:35;;;;;;;1.20;0.98;;;;;;;5.78;100.00;101684.34;10443554;28;20040;-80
2022/11/27 19:31:38;;;;;;;1.88;1.52;;;;;;;5.75;100.00;101681.59;10445892;28;20049;-79
2022/11/27 19:36:41;;;;;;;5.80;0.90;;;;;;;5.74;100.00;101689.19;10461059;28;20672;-80
2022/11/27 19:41:44;;;;;;;2.95;1.42;;;;;;;5.74;100.00;101689.19;10449491;28;20055;-80
2022/11/27 19:46:47;;;;;;;0.95;0.75;;;;;;;5.67;100.00;101686.28;10431016;28;20131;-80
2022/11/27 19:51:49;;;;;;;0.43;0.43;;;;;;;5.69;100.00;101671.91;10439404;28;20049;-80
2022/11/27 19:56:52;;;;;;;0.82;0.77;;;;;;;5.66;100.00;101674.28;10434116;28;20278;-80
2022/11/27 20:01:54;;;;;;;0.75;0.75;;;;;;;5.65;100.00;101672.50;10440433;28;20087;-80
2022/11/27 20:07:01;;;;;;;1.42;1.33;;;;;;;5.63;100.00;101675.78;10463633;28;20044;-79
2022/11/27 20:12:04;;;;;;;20.95;0.90;;;;;;;5.57;100.00;101668.63;10453242;28;20553;-80
2022/11/27 20:17:09;;;;;;;0.57;0.52;;;;;;;5.56;100.00;101671.97;10438354;28;20033;-80
2022/11/27 20:22:13;;;;;;;0.30;0.20;;;;;;;5.57;100.00;101668.63;10435126;28;20049;-80
2022/11/27 20:27:44;;;;;;;0.40;0.40;;;;;;;5.58;100.00;101654.19;10439042;28;20135;-80
2022/11/27 20:32:47;;;;;;;0.40;0.30;;;;;;;5.58;100.00;101655.03;10439011;28;20467;-80
2022/11/27 20:37:49;;;;;;;0.85;0.45;;;;;;;5.55;100.00;101659.97;10455981;28;20049;-80
2022/11/27 20:42:51;;;;;;;0.95;0.63;;;;;;;5.50;100.00;101657.16;10421470;28;20053;-81
2022/11/27 20:47:52;;;;;;;0.00;0.00;;;;;;;5.51;100.00;101664.00;10438852;28;20037;-81
2022/11/27 20:52:54;;;;;;;0.22;0.22;;;;;;;5.47;100.00;101674.00;10431279;28;20045;-81
2022/11/27 20:57:56;;;;;;;0.40;0.40;;;;;;;5.46;100.00;101667.13;10433735;28;20406;-80
2022/11/27 21:02:57;;;;;;;16.60;0.63;;;;;;;5.44;100.00;101656.78;10437389;28;20053;-80
2022/11/27 21:07:59;;;;;;;0.35;0.22;;;;;;;5.44;100.00;101667.00;10421412;28;20099;-80
2022/11/27 21:13:04;;;;;;;1.35;0.63;;;;;;;5.38;100.00;101667.53;10433886;28;20041;-80
2022/11/27 21:18:06;;;;;;;0.88;0.47;;;;;;;5.37;100.00;101670.88;10432565;28;20041;-79
2022/11/27 21:23:08;;;;;;;0.57;0.55;;;;;;;5.34;100.00;101655.34;10436324;28;20049;-82
2022/11/27 21:28:10;;;;;;;0.70;0.65;;;;;;;5.37;100.00;101654.66;10434625;28;20099;-80
2022/11/27 21:33:11;;;;;;;0.00;0.00;;;;;;;5.37;100.00;101645.34;10442280;28;20045;-80
2022/11/27 21:38:13;;;;;;;0.00;0.00;;;;;;;5.39;100.00;101643.75;10452137;28;20045;-79
2022/11/27 21:43:15;;;;;;;0.25;0.22;;;;;;;5.41;100.00;101651.50;10432328;28;20049;-79
2022/11/27 21:48:17;;;;;;;0.45;0.45;;;;;;;5.40;100.00;101653.16;10426931;28;20041;-79
2022/11/27 21:53:19;;;;;;;0.50;0.30;;;;;;;5.40;100.00;101619.94;10418720;28;20147;-80
2022/11/27 21:58:23;;;;;;;0.98;0.55;;;;;;;5.42;100.00;101626.81;10464350;28;20067;-80
2022/11/27 22:03:24;;;;;;;1.60;1.50;;;;;;;5.42;100.00;101619.16;10439948;28;20041;-79
2022/11/27 22:08:29;;;;;;;0.93;0.90;;;;;;;5.48;100.00;101617.84;10456503;28;20064;-79
2022/11/27 22:14:00;;;;;;;4.47;0.38;;;;;;;5.48;100.00;101597.41;10462739;28;20056;-79
2022/11/27 22:19:02;;;;;;;1.00;0.30;;;;;;;5.49;100.00;101568.50;10441081;28;20069;-79
2022/11/27 22:24:04;;;;;;;0.20;0.20;;;;;;;5.48;100.00;101555.63;10420101;28;20099;-79
2022/11/27 22:29:06;;;;;;;0.65;0.30;;;;;;;5.50;100.00;101531.03;10452760;28;20080;-79
2022/11/27 22:34:08;;;;;;;0.10;0.00;;;;;;;5.52;100.00;101511.56;10454208;28;20056;-79
2022/11/27 22:39:10;;;;;;;0.15;0.15;;;;;;;5.52;100.00;101491.13;10435695;28;20071;-81
2022/11/27 22:44:18;;;;;;;0.22;0.20;;;;;;;5.51;100.00;101494.47;10436256;28;20480;-80
2022/11/27 22:49:19;;;;;;;0.10;0.10;;;;;;;5.55;100.00;101498.94;10432494;28;20072;-79
2022/11/27 22:54:23;;;;;;;0.35;0.30;;;;;;;5.55;100.00;101486.16;10430221;28;20095;-81
2022/11/27 22:59:24;;;;;;;0.82;0.15;;;;;;;5.55;100.00;101475.94;10443682;28;20115;-81
2022/11/27 23:04:37;;;;;;;0.20;0.20;;;;;;;5.57;100.00;101456.44;10443763;28;20067;-80
2022/11/27 23:09:39;;;;;;;0.10;0.10;;;;;;;5.60;100.00;101432.72;10443226;28;20445;-81
2022/11/27 23:14:41;;;;;;;0.82;0.13;;;;;;;5.70;100.00;101450.34;10428124;28;20049;-80
2022/11/27 23:19:43;;;;;;;1.10;0.28;;;;;;;5.76;100.00;101445.56;10425862;28;20052;-81
2022/11/27 23:24:45;;;;;;;0.20;0.20;;;;;;;5.77;100.00;101413.22;10442375;28;20508;-80
2022/11/27 23:29:46;;;;;;;0.82;0.52;;;;;;;5.89;100.00;101388.28;10413213;28;20085;-81